sensor_id;sensor_type;location;lat;lon;timestamp;P1;durP1;ratioP1;P2;durP2;ratioP2
72813;SDS011;60945;48.516;-2.768;2023-05-10T00:02:07;12.25;;;2.70;;
72813;SDS011;60945;48.516;-2.768;2023-05-10T00:04:33;13.75;;;3.67;;
72813;SDS011;60945;48.516;-2.768;2023-05-10T00:06:58;11.10;;;2.60;;
72813;SDS011;60945;48.516;-2.768;2023-05-10T00:09:24;13.77;;;3.10;;
72813;SDS011;60945;48.516;-2.768;2023-05-10T00:11:50;11.05;;;2.80;;
72813;SDS011;60945;48.516;-2.768;2023-05-10T00:14:15;12.80;;;2.97;;
72813;SDS011;60945;48.516;-2.768;2023-05-10T00:16:41;15.65;;;2.83;;
72813;SDS011;60945;48.516;-2.768;2023-05-10T00:19:07;11.00;;;2.63;;
72813;SDS011;60945;48.516;-2.768;2023-05-10T00:21:33;14.25;;;2.90;;
72813;SDS011;60945;48.516;-2.768;2023-05-10T00:23:59;9.48;;;2.95;;
72813;SDS011;60945;48.516;-2.768;2023-05-10T00:26:24;17.42;;;2.95;;
72813;SDS011;60945;48.516;-2.768;2023-05-10T00:28:50;10.20;;;2.63;;
72813;SDS011;60945;48.516;-2.768;2023-05-10T00:31:16;16.75;;;2.83;;
72813;SDS011;60945;48.516;-2.768;2023-05-10T00:33:41;14.75;;;2.85;;
72813;SDS011;60945;48.516;-2.768;2023-05-10T00:36:09;7.80;;;2.63;;
72813;SDS011;60945;48.516;-2.768;2023-05-10T00:38:35;11.95;;;2.78;;
72813;SDS011;60945;48.516;-2.768;2023-05-10T00:41:01;10.43;;;2.70;;
72813;SDS011;60945;48.516;-2.768;2023-05-10T00:43:26;13.70;;;3.13;;
72813;SDS011;60945;48.516;-2.768;2023-05-10T00:45:52;10.57;;;3.30;;
72813;SDS011;60945;48.516;-2.768;2023-05-10T00:48:18;10.57;;;2.97;;
72813;SDS011;60945;48.516;-2.768;2023-05-10T00:50:44;17.13;;;3.30;;
72813;SDS011;60945;48.516;-2.768;2023-05-10T00:53:10;13.75;;;2.97;;
72813;SDS011;60945;48.516;-2.768;2023-05-10T00:55:36;15.15;;;3.38;;
72813;SDS011;60945;48.516;-2.768;2023-05-10T00:58:03;19.50;;;3.63;;
72813;SDS011;60945;48.516;-2.768;2023-05-10T01:00:29;14.45;;;2.92;;
72813;SDS011;60945;48.516;-2.768;2023-05-10T01:02:58;14.35;;;3.00;;
72813;SDS011;60945;48.516;-2.768;2023-05-10T01:05:23;12.48;;;3.38;;
72813;SDS011;60945;48.516;-2.768;2023-05-10T01:07:49;16.70;;;3.08;;
72813;SDS011;60945;48.516;-2.768;2023-05-10T01:10:15;10.30;;;2.50;;
72813;SDS011;60945;48.516;-2.768;2023-05-10T01:12:44;13.52;;;2.80;;
72813;SDS011;60945;48.516;-2.768;2023-05-10T01:15:11;11.13;;;2.95;;
72813;SDS011;60945;48.516;-2.768;2023-05-10T01:17:38;9.20;;;2.25;;
72813;SDS011;60945;48.516;-2.768;2023-05-10T01:20:07;10.18;;;2.67;;
72813;SDS011;60945;48.516;-2.768;2023-05-10T01:31:22;19.35;;;3.42;;
72813;SDS011;60945;48.516;-2.768;2023-05-10T01:34:08;8.57;;;2.00;;
72813;SDS011;60945;48.516;-2.768;2023-05-10T01:39:44;12.80;;;3.10;;
72813;SDS011;60945;48.516;-2.768;2023-05-10T01:42:10;11.02;;;2.75;;
72813;SDS011;60945;48.516;-2.768;2023-05-10T01:47:37;19.33;;;3.08;;
72813;SDS011;60945;48.516;-2.768;2023-05-10T01:50:10;11.88;;;2.47;;
72813;SDS011;60945;48.516;-2.768;2023-05-10T01:52:44;10.20;;;2.35;;
72813;SDS011;60945;48.516;-2.768;2023-05-10T01:55:15;12.48;;;3.03;;
72813;SDS011;60945;48.516;-2.768;2023-05-10T01:57:43;10.00;;;2.78;;
72813;SDS011;60945;48.516;-2.768;2023-05-10T02:00:11;14.43;;;3.15;;
72813;SDS011;60945;48.516;-2.768;2023-05-10T02:02:39;16.10;;;2.70;;
72813;SDS011;60945;48.516;-2.768;2023-05-10T02:05:07;16.13;;;4.57;;
72813;SDS011;60945;48.516;-2.768;2023-05-10T02:07:35;15.05;;;3.00;;
72813;SDS011;60945;48.516;-2.768;2023-05-10T02:10:02;15.13;;;2.40;;
72813;SDS011;60945;48.516;-2.768;2023-05-10T02:12:35;12.27;;;3.38;;
72813;SDS011;60945;48.516;-2.768;2023-05-10T02:15:01;12.23;;;3.08;;
72813;SDS011;60945;48.516;-2.768;2023-05-10T02:17:30;12.45;;;2.58;;
72813;SDS011;60945;48.516;-2.768;2023-05-10T02:19:58;10.50;;;2.50;;
72813;SDS011;60945;48.516;-2.768;2023-05-10T02:22:25;15.02;;;3.20;;
72813;SDS011;60945;48.516;-2.768;2023-05-10T02:24:53;10.50;;;3.10;;
72813;SDS011;60945;48.516;-2.768;2023-05-10T02:27:22;13.15;;;2.95;;
72813;SDS011;60945;48.516;-2.768;2023-05-10T02:29:50;16.27;;;3.35;;
72813;SDS011;60945;48.516;-2.768;2023-05-10T02:32:17;14.32;;;3.13;;
72813;SDS011;60945;48.516;-2.768;2023-05-10T02:34:44;13.40;;;2.38;;
72813;SDS011;60945;48.516;-2.768;2023-05-10T02:37:14;12.57;;;3.13;;
72813;SDS011;60945;48.516;-2.768;2023-05-10T02:39:40;11.20;;;2.58;;
72813;SDS011;60945;48.516;-2.768;2023-05-10T02:42:11;10.07;;;2.45;;
72813;SDS011;60945;48.516;-2.768;2023-05-10T02:44:47;12.50;;;2.47;;
72813;SDS011;60945;48.516;-2.768;2023-05-10T02:47:15;13.10;;;3.03;;
72813;SDS011;60945;48.516;-2.768;2023-05-10T02:49:41;10.60;;;2.60;;
72813;SDS011;60945;48.516;-2.768;2023-05-10T02:52:07;12.93;;;3.50;;
72813;SDS011;60945;48.516;-2.768;2023-05-10T02:54:39;12.27;;;3.15;;
72813;SDS011;60945;48.516;-2.768;2023-05-10T02:57:10;17.75;;;2.95;;
72813;SDS011;60945;48.516;-2.768;2023-05-10T02:59:40;11.52;;;2.65;;
72813;SDS011;60945;48.516;-2.768;2023-05-10T03:02:08;13.23;;;3.13;;
72813;SDS011;60945;48.516;-2.768;2023-05-10T03:04:35;9.48;;;2.20;;
72813;SDS011;60945;48.516;-2.768;2023-05-10T03:07:01;10.05;;;2.15;;
72813;SDS011;60945;48.516;-2.768;2023-05-10T03:09:26;10.30;;;2.70;;
72813;SDS011;60945;48.516;-2.768;2023-05-10T03:17:41;12.13;;;2.30;;
72813;SDS011;60945;48.516;-2.768;2023-05-10T03:20:24;14.30;;;3.10;;
72813;SDS011;60945;48.516;-2.768;2023-05-10T03:23:29;9.18;;;2.25;;
72813;SDS011;60945;48.516;-2.768;2023-05-10T03:25:57;11.82;;;3.03;;
72813;SDS011;60945;48.516;-2.768;2023-05-10T03:28:25;11.30;;;2.33;;
72813;SDS011;60945;48.516;-2.768;2023-05-10T03:30:54;8.45;;;2.95;;
72813;SDS011;60945;48.516;-2.768;2023-05-10T03:33:21;13.50;;;2.70;;
72813;SDS011;60945;48.516;-2.768;2023-05-10T03:35:47;9.18;;;2.40;;
72813;SDS011;60945;48.516;-2.768;2023-05-10T03:38:13;11.68;;;2.40;;
72813;SDS011;60945;48.516;-2.768;2023-05-10T03:40:38;12.90;;;2.20;;
72813;SDS011;60945;48.516;-2.768;2023-05-10T03:43:07;13.40;;;2.40;;
72813;SDS011;60945;48.516;-2.768;2023-05-10T03:45:32;13.55;;;2.75;;
72813;SDS011;60945;48.516;-2.768;2023-05-10T03:47:58;13.10;;;3.05;;
72813;SDS011;60945;48.516;-2.768;2023-05-10T03:50:24;6.03;;;2.25;;
72813;SDS011;60945;48.516;-2.768;2023-05-10T03:52:49;12.65;;;3.13;;
72813;SDS011;60945;48.516;-2.768;2023-05-10T03:55:18;13.02;;;2.95;;
72813;SDS011;60945;48.516;-2.768;2023-05-10T03:57:43;10.75;;;2.25;;
72813;SDS011;60945;48.516;-2.768;2023-05-10T04:00:09;10.57;;;2.50;;
72813;SDS011;60945;48.516;-2.768;2023-05-10T04:02:35;12.07;;;2.58;;
72813;SDS011;60945;48.516;-2.768;2023-05-10T04:05:01;9.05;;;2.17;;
72813;SDS011;60945;48.516;-2.768;2023-05-10T04:07:27;13.65;;;3.08;;
72813;SDS011;60945;48.516;-2.768;2023-05-10T04:09:53;11.32;;;2.28;;
72813;SDS011;60945;48.516;-2.768;2023-05-10T04:12:19;12.50;;;2.92;;
72813;SDS011;60945;48.516;-2.768;2023-05-10T04:14:47;8.75;;;2.20;;
72813;SDS011;60945;48.516;-2.768;2023-05-10T04:17:13;9.75;;;2.20;;
72813;SDS011;60945;48.516;-2.768;2023-05-10T04:19:38;13.50;;;2.90;;
72813;SDS011;60945;48.516;-2.768;2023-05-10T04:22:06;14.40;;;3.28;;
72813;SDS011;60945;48.516;-2.768;2023-05-10T04:24:32;11.30;;;2.78;;
72813;SDS011;60945;48.516;-2.768;2023-05-10T04:26:58;10.38;;;2.58;;
72813;SDS011;60945;48.516;-2.768;2023-05-10T04:29:23;13.68;;;3.10;;
72813;SDS011;60945;48.516;-2.768;2023-05-10T04:31:49;11.50;;;2.40;;
72813;SDS011;60945;48.516;-2.768;2023-05-10T04:34:15;7.82;;;2.17;;
72813;SDS011;60945;48.516;-2.768;2023-05-10T04:36:41;10.00;;;2.63;;
72813;SDS011;60945;48.516;-2.768;2023-05-10T04:39:07;7.75;;;2.63;;
72813;SDS011;60945;48.516;-2.768;2023-05-10T04:41:33;8.27;;;2.28;;
72813;SDS011;60945;48.516;-2.768;2023-05-10T04:43:58;8.00;;;2.50;;
72813;SDS011;60945;48.516;-2.768;2023-05-10T04:46:24;12.45;;;2.55;;
72813;SDS011;60945;48.516;-2.768;2023-05-10T04:48:50;11.05;;;3.17;;
72813;SDS011;60945;48.516;-2.768;2023-05-10T04:51:15;12.07;;;2.50;;
72813;SDS011;60945;48.516;-2.768;2023-05-10T04:53:41;10.82;;;2.65;;
72813;SDS011;60945;48.516;-2.768;2023-05-10T04:56:06;12.38;;;2.38;;
72813;SDS011;60945;48.516;-2.768;2023-05-10T04:58:32;12.57;;;2.38;;
72813;SDS011;60945;48.516;-2.768;2023-05-10T05:01:04;16.75;;;2.55;;
72813;SDS011;60945;48.516;-2.768;2023-05-10T05:03:31;8.90;;;2.97;;
72813;SDS011;60945;48.516;-2.768;2023-05-10T05:05:57;8.13;;;2.30;;
72813;SDS011;60945;48.516;-2.768;2023-05-10T05:08:23;11.10;;;2.80;;
72813;SDS011;60945;48.516;-2.768;2023-05-10T05:10:49;9.50;;;1.85;;
72813;SDS011;60945;48.516;-2.768;2023-05-10T05:13:15;13.98;;;2.60;;
72813;SDS011;60945;48.516;-2.768;2023-05-10T05:15:40;6.80;;;2.20;;
72813;SDS011;60945;48.516;-2.768;2023-05-10T05:18:06;15.75;;;2.58;;
72813;SDS011;60945;48.516;-2.768;2023-05-10T05:20:32;14.02;;;2.55;;
72813;SDS011;60945;48.516;-2.768;2023-05-10T05:22:59;9.07;;;2.67;;
72813;SDS011;60945;48.516;-2.768;2023-05-10T05:25:25;9.35;;;3.13;;
72813;SDS011;60945;48.516;-2.768;2023-05-10T05:27:50;9.15;;;2.50;;
72813;SDS011;60945;48.516;-2.768;2023-05-10T05:30:16;7.88;;;2.28;;
72813;SDS011;60945;48.516;-2.768;2023-05-10T05:32:44;10.98;;;2.95;;
72813;SDS011;60945;48.516;-2.768;2023-05-10T05:35:12;11.32;;;3.05;;
72813;SDS011;60945;48.516;-2.768;2023-05-10T05:37:37;19.00;;;3.13;;
72813;SDS011;60945;48.516;-2.768;2023-05-10T05:40:03;12.45;;;2.85;;
72813;SDS011;60945;48.516;-2.768;2023-05-10T05:42:30;13.07;;;2.72;;
72813;SDS011;60945;48.516;-2.768;2023-05-10T05:44:56;13.45;;;2.40;;
72813;SDS011;60945;48.516;-2.768;2023-05-10T05:47:22;9.15;;;3.08;;
72813;SDS011;60945;48.516;-2.768;2023-05-10T05:49:47;10.55;;;2.92;;
72813;SDS011;60945;48.516;-2.768;2023-05-10T05:52:13;14.23;;;3.33;;
72813;SDS011;60945;48.516;-2.768;2023-05-10T05:54:39;9.80;;;3.03;;
72813;SDS011;60945;48.516;-2.768;2023-05-10T05:57:05;16.90;;;2.92;;
72813;SDS011;60945;48.516;-2.768;2023-05-10T05:59:30;9.82;;;2.85;;
72813;SDS011;60945;48.516;-2.768;2023-05-10T06:01:56;10.82;;;2.70;;
72813;SDS011;60945;48.516;-2.768;2023-05-10T06:04:22;13.45;;;3.47;;
72813;SDS011;60945;48.516;-2.768;2023-05-10T06:06:47;11.95;;;2.42;;
72813;SDS011;60945;48.516;-2.768;2023-05-10T06:09:13;8.88;;;3.15;;
72813;SDS011;60945;48.516;-2.768;2023-05-10T06:11:39;7.72;;;2.50;;
72813;SDS011;60945;48.516;-2.768;2023-05-10T06:14:05;10.63;;;2.53;;
72813;SDS011;60945;48.516;-2.768;2023-05-10T06:16:32;9.85;;;2.60;;
72813;SDS011;60945;48.516;-2.768;2023-05-10T06:18:57;10.80;;;2.55;;
72813;SDS011;60945;48.516;-2.768;2023-05-10T06:21:23;8.60;;;2.33;;
72813;SDS011;60945;48.516;-2.768;2023-05-10T06:23:49;8.38;;;2.42;;
72813;SDS011;60945;48.516;-2.768;2023-05-10T06:26:14;12.70;;;2.60;;
72813;SDS011;60945;48.516;-2.768;2023-05-10T06:28:40;7.55;;;2.10;;
72813;SDS011;60945;48.516;-2.768;2023-05-10T06:31:06;8.50;;;2.15;;
72813;SDS011;60945;48.516;-2.768;2023-05-10T06:33:32;9.07;;;2.50;;
72813;SDS011;60945;48.516;-2.768;2023-05-10T06:35:58;10.20;;;2.65;;
72813;SDS011;60945;48.516;-2.768;2023-05-10T06:38:24;9.75;;;2.38;;
72813;SDS011;60945;48.516;-2.768;2023-05-10T06:40:49;11.05;;;2.50;;
72813;SDS011;60945;48.516;-2.768;2023-05-10T06:43:15;12.50;;;2.53;;
72813;SDS011;60945;48.516;-2.768;2023-05-10T06:45:41;13.50;;;2.85;;
72813;SDS011;60945;48.516;-2.768;2023-05-10T06:48:07;12.27;;;2.50;;
72813;SDS011;60945;48.516;-2.768;2023-05-10T06:50:33;11.25;;;2.50;;
72813;SDS011;60945;48.516;-2.768;2023-05-10T06:52:59;7.95;;;2.63;;
72813;SDS011;60945;48.516;-2.768;2023-05-10T06:55:27;13.30;;;2.28;;
72813;SDS011;60945;48.516;-2.768;2023-05-10T06:57:54;11.20;;;2.50;;
72813;SDS011;60945;48.516;-2.768;2023-05-10T07:00:21;8.00;;;2.38;;
72813;SDS011;60945;48.516;-2.768;2023-05-10T07:02:47;15.40;;;3.00;;
72813;SDS011;60945;48.516;-2.768;2023-05-10T07:05:13;11.23;;;3.28;;
72813;SDS011;60945;48.516;-2.768;2023-05-10T07:07:40;8.05;;;3.08;;
72813;SDS011;60945;48.516;-2.768;2023-05-10T07:10:06;9.93;;;2.33;;
72813;SDS011;60945;48.516;-2.768;2023-05-10T07:12:32;8.32;;;2.03;;
72813;SDS011;60945;48.516;-2.768;2023-05-10T07:14:58;11.18;;;2.72;;
72813;SDS011;60945;48.516;-2.768;2023-05-10T07:17:24;10.38;;;3.17;;
72813;SDS011;60945;48.516;-2.768;2023-05-10T07:19:49;13.18;;;2.92;;
72813;SDS011;60945;48.516;-2.768;2023-05-10T07:22:15;11.25;;;2.97;;
72813;SDS011;60945;48.516;-2.768;2023-05-10T07:24:41;12.10;;;2.90;;
72813;SDS011;60945;48.516;-2.768;2023-05-10T07:27:07;9.68;;;2.67;;
72813;SDS011;60945;48.516;-2.768;2023-05-10T07:29:34;10.30;;;2.67;;
72813;SDS011;60945;48.516;-2.768;2023-05-10T07:31:59;13.23;;;2.95;;
72813;SDS011;60945;48.516;-2.768;2023-05-10T07:34:26;10.52;;;3.13;;
72813;SDS011;60945;48.516;-2.768;2023-05-10T07:36:52;9.73;;;2.67;;
72813;SDS011;60945;48.516;-2.768;2023-05-10T07:39:19;15.32;;;2.78;;
72813;SDS011;60945;48.516;-2.768;2023-05-10T07:41:48;11.20;;;2.50;;
72813;SDS011;60945;48.516;-2.768;2023-05-10T07:44:13;8.30;;;2.40;;
72813;SDS011;60945;48.516;-2.768;2023-05-10T07:46:39;9.93;;;2.25;;
72813;SDS011;60945;48.516;-2.768;2023-05-10T07:49:05;10.30;;;2.92;;
72813;SDS011;60945;48.516;-2.768;2023-05-10T07:51:31;11.07;;;2.88;;
72813;SDS011;60945;48.516;-2.768;2023-05-10T07:53:56;6.57;;;2.10;;
72813;SDS011;60945;48.516;-2.768;2023-05-10T07:58:48;11.13;;;2.40;;
72813;SDS011;60945;48.516;-2.768;2023-05-10T08:01:14;9.02;;;2.58;;
72813;SDS011;60945;48.516;-2.768;2023-05-10T08:03:39;7.18;;;2.17;;
72813;SDS011;60945;48.516;-2.768;2023-05-10T08:06:05;9.35;;;2.30;;
72813;SDS011;60945;48.516;-2.768;2023-05-10T08:08:31;9.10;;;3.03;;
72813;SDS011;60945;48.516;-2.768;2023-05-10T08:10:57;10.07;;;2.30;;
72813;SDS011;60945;48.516;-2.768;2023-05-10T08:13:22;6.70;;;1.92;;
72813;SDS011;60945;48.516;-2.768;2023-05-10T08:15:48;6.80;;;2.20;;
72813;SDS011;60945;48.516;-2.768;2023-05-10T08:18:14;6.75;;;2.00;;
72813;SDS011;60945;48.516;-2.768;2023-05-10T08:20:39;6.93;;;1.70;;
72813;SDS011;60945;48.516;-2.768;2023-05-10T08:23:05;6.70;;;1.58;;
72813;SDS011;60945;48.516;-2.768;2023-05-10T08:25:31;3.78;;;1.20;;
72813;SDS011;60945;48.516;-2.768;2023-05-10T08:27:57;6.97;;;1.92;;
72813;SDS011;60945;48.516;-2.768;2023-05-10T08:30:23;6.43;;;1.88;;
72813;SDS011;60945;48.516;-2.768;2023-05-10T08:32:48;6.32;;;2.08;;
72813;SDS011;60945;48.516;-2.768;2023-05-10T08:35:15;9.43;;;2.08;;
72813;SDS011;60945;48.516;-2.768;2023-05-10T08:37:41;5.70;;;1.73;;
72813;SDS011;60945;48.516;-2.768;2023-05-10T08:40:06;7.72;;;2.08;;
72813;SDS011;60945;48.516;-2.768;2023-05-10T08:42:36;6.20;;;1.92;;
72813;SDS011;60945;48.516;-2.768;2023-05-10T08:45:10;7.30;;;2.03;;
72813;SDS011;60945;48.516;-2.768;2023-05-10T08:47:46;6.07;;;1.70;;
72813;SDS011;60945;48.516;-2.768;2023-05-10T08:50:13;5.30;;;1.90;;
72813;SDS011;60945;48.516;-2.768;2023-05-10T08:52:41;6.88;;;1.50;;
72813;SDS011;60945;48.516;-2.768;2023-05-10T08:55:08;4.78;;;1.85;;
72813;SDS011;60945;48.516;-2.768;2023-05-10T08:57:35;7.38;;;1.77;;
72813;SDS011;60945;48.516;-2.768;2023-05-10T09:00:01;7.85;;;2.13;;
72813;SDS011;60945;48.516;-2.768;2023-05-10T09:02:27;5.53;;;1.60;;
72813;SDS011;60945;48.516;-2.768;2023-05-10T09:04:53;4.40;;;1.48;;
72813;SDS011;60945;48.516;-2.768;2023-05-10T09:07:20;5.47;;;1.95;;
72813;SDS011;60945;48.516;-2.768;2023-05-10T09:09:46;5.45;;;1.45;;
72813;SDS011;60945;48.516;-2.768;2023-05-10T09:12:12;6.10;;;1.90;;
72813;SDS011;60945;48.516;-2.768;2023-05-10T09:14:40;4.78;;;1.42;;
72813;SDS011;60945;48.516;-2.768;2023-05-10T09:17:07;5.78;;;1.20;;
72813;SDS011;60945;48.516;-2.768;2023-05-10T09:19:34;3.13;;;1.50;;
72813;SDS011;60945;48.516;-2.768;2023-05-10T09:21:59;6.25;;;1.83;;
72813;SDS011;60945;48.516;-2.768;2023-05-10T09:24:29;7.13;;;2.95;;
72813;SDS011;60945;48.516;-2.768;2023-05-10T09:26:56;5.15;;;1.48;;
72813;SDS011;60945;48.516;-2.768;2023-05-10T09:29:25;4.65;;;1.23;;
72813;SDS011;60945;48.516;-2.768;2023-05-10T09:31:57;7.00;;;1.60;;
72813;SDS011;60945;48.516;-2.768;2023-05-10T09:34:39;6.97;;;1.70;;
72813;SDS011;60945;48.516;-2.768;2023-05-10T09:37:08;4.93;;;1.17;;
72813;SDS011;60945;48.516;-2.768;2023-05-10T09:39:36;5.32;;;1.40;;
72813;SDS011;60945;48.516;-2.768;2023-05-10T09:42:07;6.18;;;1.63;;
72813;SDS011;60945;48.516;-2.768;2023-05-10T09:44:34;7.43;;;1.50;;
72813;SDS011;60945;48.516;-2.768;2023-05-10T09:47:01;3.75;;;1.40;;
72813;SDS011;60945;48.516;-2.768;2023-05-10T09:49:27;5.38;;;1.65;;
72813;SDS011;60945;48.516;-2.768;2023-05-10T09:52:06;4.93;;;1.40;;
72813;SDS011;60945;48.516;-2.768;2023-05-10T09:54:32;4.18;;;1.35;;
72813;SDS011;60945;48.516;-2.768;2023-05-10T09:56:59;4.13;;;1.42;;
72813;SDS011;60945;48.516;-2.768;2023-05-10T09:59:26;5.70;;;1.48;;
72813;SDS011;60945;48.516;-2.768;2023-05-10T10:01:55;5.88;;;1.35;;
72813;SDS011;60945;48.516;-2.768;2023-05-10T10:04:22;4.32;;;1.05;;
72813;SDS011;60945;48.516;-2.768;2023-05-10T10:06:57;4.60;;;1.70;;
72813;SDS011;60945;48.516;-2.768;2023-05-10T10:09:25;4.40;;;1.40;;
72813;SDS011;60945;48.516;-2.768;2023-05-10T10:11:51;6.70;;;1.23;;
72813;SDS011;60945;48.516;-2.768;2023-05-10T10:14:20;5.80;;;1.10;;
72813;SDS011;60945;48.516;-2.768;2023-05-10T10:16:48;6.03;;;1.10;;
72813;SDS011;60945;48.516;-2.768;2023-05-10T10:19:15;4.93;;;1.65;;
72813;SDS011;60945;48.516;-2.768;2023-05-10T10:21:46;5.93;;;1.80;;
72813;SDS011;60945;48.516;-2.768;2023-05-10T10:24:12;4.18;;;1.25;;
72813;SDS011;60945;48.516;-2.768;2023-05-10T10:26:38;6.32;;;1.90;;
72813;SDS011;60945;48.516;-2.768;2023-05-10T10:29:15;5.90;;;1.80;;
72813;SDS011;60945;48.516;-2.768;2023-05-10T10:34:32;6.47;;;1.80;;
72813;SDS011;60945;48.516;-2.768;2023-05-10T10:36:57;4.90;;;1.63;;
72813;SDS011;60945;48.516;-2.768;2023-05-10T10:39:31;4.75;;;1.35;;
72813;SDS011;60945;48.516;-2.768;2023-05-10T10:41:57;5.30;;;1.67;;
72813;SDS011;60945;48.516;-2.768;2023-05-10T10:49:38;7.03;;;3.00;;
72813;SDS011;60945;48.516;-2.768;2023-05-10T10:52:14;5.38;;;1.70;;
72813;SDS011;60945;48.516;-2.768;2023-05-10T10:54:49;3.90;;;1.20;;
72813;SDS011;60945;48.516;-2.768;2023-05-10T10:57:17;5.10;;;1.60;;
72813;SDS011;60945;48.516;-2.768;2023-05-10T10:59:44;5.15;;;1.35;;
72813;SDS011;60945;48.516;-2.768;2023-05-10T11:02:10;5.00;;;1.50;;
72813;SDS011;60945;48.516;-2.768;2023-05-10T11:04:55;3.95;;;1.38;;
72813;SDS011;60945;48.516;-2.768;2023-05-10T11:07:21;5.93;;;1.40;;
72813;SDS011;60945;48.516;-2.768;2023-05-10T11:09:47;3.63;;;1.35;;
72813;SDS011;60945;48.516;-2.768;2023-05-10T11:12:13;5.72;;;1.50;;
72813;SDS011;60945;48.516;-2.768;2023-05-10T11:14:39;4.75;;;1.63;;
72813;SDS011;60945;48.516;-2.768;2023-05-10T11:17:24;5.53;;;1.63;;
72813;SDS011;60945;48.516;-2.768;2023-05-10T11:20:09;5.30;;;1.40;;
72813;SDS011;60945;48.516;-2.768;2023-05-10T11:25:17;2.83;;;1.02;;
72813;SDS011;60945;48.516;-2.768;2023-05-10T11:27:43;2.92;;;1.02;;
72813;SDS011;60945;48.516;-2.768;2023-05-10T11:30:10;3.30;;;0.93;;
72813;SDS011;60945;48.516;-2.768;2023-05-10T11:32:40;3.20;;;0.82;;
72813;SDS011;60945;48.516;-2.768;2023-05-10T11:35:09;2.60;;;1.05;;
72813;SDS011;60945;48.516;-2.768;2023-05-10T11:37:36;2.78;;;0.90;;
72813;SDS011;60945;48.516;-2.768;2023-05-10T11:42:36;2.97;;;1.13;;
72813;SDS011;60945;48.516;-2.768;2023-05-10T11:45:02;5.18;;;2.22;;
72813;SDS011;60945;48.516;-2.768;2023-05-10T11:47:28;4.60;;;1.00;;
72813;SDS011;60945;48.516;-2.768;2023-05-10T11:49:54;5.00;;;1.20;;
72813;SDS011;60945;48.516;-2.768;2023-05-10T11:52:20;4.35;;;1.20;;
72813;SDS011;60945;48.516;-2.768;2023-05-10T11:54:50;4.28;;;1.20;;
72813;SDS011;60945;48.516;-2.768;2023-05-10T11:59:53;7.07;;;1.40;;
72813;SDS011;60945;48.516;-2.768;2023-05-10T12:02:22;4.88;;;1.50;;
72813;SDS011;60945;48.516;-2.768;2023-05-10T12:04:48;6.43;;;1.65;;
72813;SDS011;60945;48.516;-2.768;2023-05-10T12:07:15;6.22;;;1.50;;
72813;SDS011;60945;48.516;-2.768;2023-05-10T12:09:44;5.40;;;1.55;;
72813;SDS011;60945;48.516;-2.768;2023-05-10T12:12:26;4.63;;;1.30;;
72813;SDS011;60945;48.516;-2.768;2023-05-10T12:14:52;4.95;;;1.50;;
72813;SDS011;60945;48.516;-2.768;2023-05-10T12:17:17;8.05;;;1.58;;
72813;SDS011;60945;48.516;-2.768;2023-05-10T12:19:43;6.05;;;1.15;;
72813;SDS011;60945;48.516;-2.768;2023-05-10T12:22:09;5.35;;;1.38;;
72813;SDS011;60945;48.516;-2.768;2023-05-10T12:24:38;3.17;;;1.17;;
72813;SDS011;60945;48.516;-2.768;2023-05-10T12:27:04;5.13;;;1.10;;
72813;SDS011;60945;48.516;-2.768;2023-05-10T12:29:33;3.88;;;1.52;;
72813;SDS011;60945;48.516;-2.768;2023-05-10T12:31:59;4.28;;;1.38;;
72813;SDS011;60945;48.516;-2.768;2023-05-10T12:34:31;3.20;;;1.10;;
72813;SDS011;60945;48.516;-2.768;2023-05-10T12:36:59;4.40;;;1.30;;
72813;SDS011;60945;48.516;-2.768;2023-05-10T12:39:25;3.38;;;1.13;;
72813;SDS011;60945;48.516;-2.768;2023-05-10T12:41:51;4.97;;;1.33;;
72813;SDS011;60945;48.516;-2.768;2023-05-10T12:44:17;5.22;;;1.63;;
72813;SDS011;60945;48.516;-2.768;2023-05-10T12:46:43;6.63;;;1.48;;
72813;SDS011;60945;48.516;-2.768;2023-05-10T12:49:09;5.85;;;1.42;;
72813;SDS011;60945;48.516;-2.768;2023-05-10T12:51:35;6.00;;;1.20;;
72813;SDS011;60945;48.516;-2.768;2023-05-10T12:54:02;5.15;;;1.02;;
72813;SDS011;60945;48.516;-2.768;2023-05-10T12:56:27;3.78;;;1.23;;
72813;SDS011;60945;48.516;-2.768;2023-05-10T12:58:56;3.85;;;1.23;;
72813;SDS011;60945;48.516;-2.768;2023-05-10T13:01:22;4.60;;;1.60;;
72813;SDS011;60945;48.516;-2.768;2023-05-10T13:03:47;4.63;;;1.05;;
72813;SDS011;60945;48.516;-2.768;2023-05-10T13:06:13;5.70;;;1.45;;
72813;SDS011;60945;48.516;-2.768;2023-05-10T13:08:39;4.75;;;1.10;;
72813;SDS011;60945;48.516;-2.768;2023-05-10T13:11:05;3.22;;;1.25;;
72813;SDS011;60945;48.516;-2.768;2023-05-10T13:13:31;4.75;;;1.30;;
72813;SDS011;60945;48.516;-2.768;2023-05-10T13:15:57;4.28;;;1.10;;
72813;SDS011;60945;48.516;-2.768;2023-05-10T13:18:22;3.28;;;1.10;;
72813;SDS011;60945;48.516;-2.768;2023-05-10T13:20:49;4.25;;;1.10;;
72813;SDS011;60945;48.516;-2.768;2023-05-10T13:23:17;4.60;;;1.58;;
72813;SDS011;60945;48.516;-2.768;2023-05-10T13:25:42;5.30;;;1.23;;
72813;SDS011;60945;48.516;-2.768;2023-05-10T13:28:08;3.97;;;1.20;;
72813;SDS011;60945;48.516;-2.768;2023-05-10T13:30:34;5.95;;;1.40;;
72813;SDS011;60945;48.516;-2.768;2023-05-10T13:32:59;4.93;;;1.38;;
72813;SDS011;60945;48.516;-2.768;2023-05-10T13:35:25;5.43;;;1.35;;
72813;SDS011;60945;48.516;-2.768;2023-05-10T13:37:51;4.10;;;1.25;;
72813;SDS011;60945;48.516;-2.768;2023-05-10T13:40:18;4.10;;;1.55;;
72813;SDS011;60945;48.516;-2.768;2023-05-10T13:42:44;4.82;;;1.30;;
72813;SDS011;60945;48.516;-2.768;2023-05-10T13:45:09;4.25;;;1.50;;
72813;SDS011;60945;48.516;-2.768;2023-05-10T13:47:36;7.13;;;1.50;;
72813;SDS011;60945;48.516;-2.768;2023-05-10T13:50:02;4.95;;;1.30;;
72813;SDS011;60945;48.516;-2.768;2023-05-10T13:52:28;5.38;;;1.25;;
72813;SDS011;60945;48.516;-2.768;2023-05-10T13:54:54;4.30;;;1.40;;
72813;SDS011;60945;48.516;-2.768;2023-05-10T13:57:20;3.92;;;1.40;;
72813;SDS011;60945;48.516;-2.768;2023-05-10T13:59:46;4.65;;;1.30;;
72813;SDS011;60945;48.516;-2.768;2023-05-10T14:02:12;3.72;;;1.10;;
72813;SDS011;60945;48.516;-2.768;2023-05-10T14:04:40;4.65;;;1.30;;
72813;SDS011;60945;48.516;-2.768;2023-05-10T14:07:05;6.05;;;1.42;;
72813;SDS011;60945;48.516;-2.768;2023-05-10T14:09:31;3.90;;;1.00;;
72813;SDS011;60945;48.516;-2.768;2023-05-10T14:11:56;3.22;;;1.08;;
72813;SDS011;60945;48.516;-2.768;2023-05-10T14:14:22;3.55;;;1.13;;
72813;SDS011;60945;48.516;-2.768;2023-05-10T14:16:48;4.82;;;1.30;;
72813;SDS011;60945;48.516;-2.768;2023-05-10T14:19:13;4.07;;;1.27;;
72813;SDS011;60945;48.516;-2.768;2023-05-10T14:21:39;4.07;;;1.38;;
72813;SDS011;60945;48.516;-2.768;2023-05-10T14:24:05;5.13;;;1.38;;
72813;SDS011;60945;48.516;-2.768;2023-05-10T14:26:32;3.00;;;1.00;;
72813;SDS011;60945;48.516;-2.768;2023-05-10T14:28:59;3.35;;;0.90;;
72813;SDS011;60945;48.516;-2.768;2023-05-10T14:31:25;4.18;;;1.10;;
72813;SDS011;60945;48.516;-2.768;2023-05-10T14:33:50;1.90;;;0.90;;
72813;SDS011;60945;48.516;-2.768;2023-05-10T14:36:17;4.43;;;1.15;;
72813;SDS011;60945;48.516;-2.768;2023-05-10T14:38:42;4.95;;;1.10;;
72813;SDS011;60945;48.516;-2.768;2023-05-10T14:41:08;4.35;;;1.33;;
72813;SDS011;60945;48.516;-2.768;2023-05-10T14:43:34;2.35;;;1.00;;
72813;SDS011;60945;48.516;-2.768;2023-05-10T14:46:00;3.40;;;1.08;;
72813;SDS011;60945;48.516;-2.768;2023-05-10T14:48:26;4.65;;;0.93;;
72813;SDS011;60945;48.516;-2.768;2023-05-10T14:50:51;2.67;;;1.60;;
72813;SDS011;60945;48.516;-2.768;2023-05-10T14:53:17;4.00;;;1.65;;
72813;SDS011;60945;48.516;-2.768;2023-05-10T14:55:43;3.42;;;1.10;;
72813;SDS011;60945;48.516;-2.768;2023-05-10T14:58:09;3.50;;;1.10;;
72813;SDS011;60945;48.516;-2.768;2023-05-10T15:00:34;2.65;;;0.70;;
72813;SDS011;60945;48.516;-2.768;2023-05-10T15:03:00;4.60;;;0.90;;
72813;SDS011;60945;48.516;-2.768;2023-05-10T15:05:26;3.20;;;1.15;;
72813;SDS011;60945;48.516;-2.768;2023-05-10T15:07:52;5.68;;;1.40;;